sensor_id;sensor_type;location;lat;lon;timestamp;P1;durP1;ratioP1;P2;durP2;ratioP2
70008;SDS011;59542;37.950;-122.338;2023-05-10T00:01:07;4.40;;;0.65;;
70008;SDS011;59542;37.950;-122.338;2023-05-10T00:03:33;1.20;;;0.50;;
70008;SDS011;59542;37.950;-122.338;2023-05-10T00:05:59;1.30;;;0.50;;
70008;SDS011;59542;37.950;-122.338;2023-05-10T00:08:26;2.55;;;0.60;;
70008;SDS011;59542;37.950;-122.338;2023-05-10T00:10:52;1.98;;;0.50;;
70008;SDS011;59542;37.950;-122.338;2023-05-10T00:13:18;0.88;;;0.55;;
70008;SDS011;59542;37.950;-122.338;2023-05-10T00:15:45;1.35;;;0.47;;
70008;SDS011;59542;37.950;-122.338;2023-05-10T00:18:11;1.83;;;0.45;;
70008;SDS011;59542;37.950;-122.338;2023-05-10T00:20:37;2.70;;;0.50;;
70008;SDS011;59542;37.950;-122.338;2023-05-10T00:23:03;1.70;;;0.50;;
70008;SDS011;59542;37.950;-122.338;2023-05-10T00:25:30;2.08;;;0.60;;
70008;SDS011;59542;37.950;-122.338;2023-05-10T00:27:56;2.22;;;0.50;;
70008;SDS011;59542;37.950;-122.338;2023-05-10T00:30:22;2.85;;;0.60;;
70008;SDS011;59542;37.950;-122.338;2023-05-10T00:32:48;4.70;;;0.60;;
70008;SDS011;59542;37.950;-122.338;2023-05-10T00:35:15;2.72;;;0.70;;
70008;SDS011;59542;37.950;-122.338;2023-05-10T00:37:41;1.55;;;0.30;;
70008;SDS011;59542;37.950;-122.338;2023-05-10T00:40:08;2.97;;;0.60;;
70008;SDS011;59542;37.950;-122.338;2023-05-10T00:42:34;2.20;;;0.60;;
70008;SDS011;59542;37.950;-122.338;2023-05-10T00:45:01;3.63;;;0.57;;
70008;SDS011;59542;37.950;-122.338;2023-05-10T00:47:27;1.75;;;0.60;;
70008;SDS011;59542;37.950;-122.338;2023-05-10T00:49:54;2.33;;;0.50;;
70008;SDS011;59542;37.950;-122.338;2023-05-10T00:52:21;1.35;;;0.60;;
70008;SDS011;59542;37.950;-122.338;2023-05-10T00:54:50;1.52;;;0.55;;
70008;SDS011;59542;37.950;-122.338;2023-05-10T00:57:17;3.88;;;0.57;;
70008;SDS011;59542;37.950;-122.338;2023-05-10T00:59:44;1.88;;;0.65;;
70008;SDS011;59542;37.950;-122.338;2023-05-10T01:02:11;2.70;;;0.63;;
70008;SDS011;59542;37.950;-122.338;2023-05-10T01:04:38;0.73;;;0.50;;
70008;SDS011;59542;37.950;-122.338;2023-05-10T01:07:04;2.33;;;0.60;;
70008;SDS011;59542;37.950;-122.338;2023-05-10T01:09:31;2.80;;;0.70;;
70008;SDS011;59542;37.950;-122.338;2023-05-10T01:11:58;2.28;;;0.50;;
70008;SDS011;59542;37.950;-122.338;2023-05-10T01:14:26;2.83;;;0.60;;
70008;SDS011;59542;37.950;-122.338;2023-05-10T01:16:53;2.17;;;0.50;;
70008;SDS011;59542;37.950;-122.338;2023-05-10T01:19:22;2.70;;;0.82;;
70008;SDS011;59542;37.950;-122.338;2023-05-10T01:28:02;3.30;;;0.70;;
70008;SDS011;59542;37.950;-122.338;2023-05-10T01:30:50;1.83;;;0.50;;
70008;SDS011;59542;37.950;-122.338;2023-05-10T01:39:06;1.67;;;0.65;;
70008;SDS011;59542;37.950;-122.338;2023-05-10T01:42:25;1.10;;;0.52;;
70008;SDS011;59542;37.950;-122.338;2023-05-10T01:44:35;1.67;;;0.70;;
70008;SDS011;59542;37.950;-122.338;2023-05-10T01:48:12;1.63;;;0.40;;
70008;SDS011;59542;37.950;-122.338;2023-05-10T01:50:23;1.13;;;0.50;;
70008;SDS011;59542;37.950;-122.338;2023-05-10T01:52:55;1.38;;;0.40;;
70008;SDS011;59542;37.950;-122.338;2023-05-10T01:55:28;3.10;;;0.75;;
70008;SDS011;59542;37.950;-122.338;2023-05-10T01:58:08;1.30;;;0.43;;
70008;SDS011;59542;37.950;-122.338;2023-05-10T02:00:40;2.22;;;0.60;;
70008;SDS011;59542;37.950;-122.338;2023-05-10T02:03:10;1.33;;;0.50;;
70008;SDS011;59542;37.950;-122.338;2023-05-10T02:05:37;1.60;;;0.40;;
70008;SDS011;59542;37.950;-122.338;2023-05-10T02:08:06;4.05;;;0.40;;
70008;SDS011;59542;37.950;-122.338;2023-05-10T02:10:34;1.55;;;0.50;;
70008;SDS011;59542;37.950;-122.338;2023-05-10T02:13:00;1.00;;;0.43;;
70008;SDS011;59542;37.950;-122.338;2023-05-10T02:15:28;1.30;;;0.57;;
70008;SDS011;59542;37.950;-122.338;2023-05-10T02:17:56;0.90;;;0.30;;
70008;SDS011;59542;37.950;-122.338;2023-05-10T02:20:24;0.63;;;0.50;;
70008;SDS011;59542;37.950;-122.338;2023-05-10T02:22:51;0.85;;;0.40;;
70008;SDS011;59542;37.950;-122.338;2023-05-10T02:25:20;1.35;;;0.60;;
70008;SDS011;59542;37.950;-122.338;2023-05-10T02:27:48;1.10;;;0.47;;
70008;SDS011;59542;37.950;-122.338;2023-05-10T02:30:15;1.85;;;0.50;;
70008;SDS011;59542;37.950;-122.338;2023-05-10T02:32:44;1.65;;;0.57;;
70008;SDS011;59542;37.950;-122.338;2023-05-10T02:35:11;4.38;;;0.57;;
70008;SDS011;59542;37.950;-122.338;2023-05-10T02:37:38;0.88;;;0.50;;
70008;SDS011;59542;37.950;-122.338;2023-05-10T02:40:06;2.58;;;0.43;;
70008;SDS011;59542;37.950;-122.338;2023-05-10T02:42:35;1.50;;;0.60;;
70008;SDS011;59542;37.950;-122.338;2023-05-10T02:45:08;1.00;;;0.40;;
70008;SDS011;59542;37.950;-122.338;2023-05-10T02:47:38;1.33;;;0.75;;
70008;SDS011;59542;37.950;-122.338;2023-05-10T02:50:05;4.55;;;0.85;;
70008;SDS011;59542;37.950;-122.338;2023-05-10T02:52:39;0.88;;;0.60;;
70008;SDS011;59542;37.950;-122.338;2023-05-10T02:55:11;1.15;;;0.60;;
70008;SDS011;59542;37.950;-122.338;2023-05-10T02:57:50;1.60;;;0.32;;
70008;SDS011;59542;37.950;-122.338;2023-05-10T03:00:20;1.58;;;0.50;;
70008;SDS011;59542;37.950;-122.338;2023-05-10T03:02:46;1.13;;;0.50;;
70008;SDS011;59542;37.950;-122.338;2023-05-10T03:05:12;0.88;;;0.40;;
70008;SDS011;59542;37.950;-122.338;2023-05-10T03:07:38;1.45;;;0.57;;
70008;SDS011;59542;37.950;-122.338;2023-05-10T03:10:05;3.15;;;0.90;;
70008;SDS011;59542;37.950;-122.338;2023-05-10T03:15:25;2.05;;;0.52;;
70008;SDS011;59542;37.950;-122.338;2023-05-10T03:18:23;1.67;;;0.52;;
70008;SDS011;59542;37.950;-122.338;2023-05-10T03:21:00;2.53;;;0.60;;
70008;SDS011;59542;37.950;-122.338;2023-05-10T03:23:35;2.33;;;0.70;;
70008;SDS011;59542;37.950;-122.338;2023-05-10T03:26:07;3.33;;;0.90;;
70008;SDS011;59542;37.950;-122.338;2023-05-10T03:28:36;0.95;;;0.60;;
70008;SDS011;59542;37.950;-122.338;2023-05-10T03:31:03;2.20;;;0.80;;
70008;SDS011;59542;37.950;-122.338;2023-05-10T03:33:31;2.78;;;0.80;;
70008;SDS011;59542;37.950;-122.338;2023-05-10T03:35:57;1.80;;;0.57;;
70008;SDS011;59542;37.950;-122.338;2023-05-10T03:38:23;1.60;;;0.63;;
70008;SDS011;59542;37.950;-122.338;2023-05-10T03:40:50;1.35;;;0.60;;
70008;SDS011;59542;37.950;-122.338;2023-05-10T03:43:16;3.65;;;0.65;;
70008;SDS011;59542;37.950;-122.338;2023-05-10T03:45:42;1.23;;;0.45;;
70008;SDS011;59542;37.950;-122.338;2023-05-10T03:48:08;2.45;;;0.50;;
70008;SDS011;59542;37.950;-122.338;2023-05-10T03:50:35;1.92;;;0.60;;
70008;SDS011;59542;37.950;-122.338;2023-05-10T03:53:01;1.60;;;0.50;;
70008;SDS011;59542;37.950;-122.338;2023-05-10T03:55:27;2.17;;;0.77;;
70008;SDS011;59542;37.950;-122.338;2023-05-10T03:57:54;2.45;;;0.50;;
70008;SDS011;59542;37.950;-122.338;2023-05-10T04:00:21;1.80;;;0.70;;
70008;SDS011;59542;37.950;-122.338;2023-05-10T04:02:47;1.98;;;0.70;;
70008;SDS011;59542;37.950;-122.338;2023-05-10T04:05:13;1.00;;;0.52;;
70008;SDS011;59542;37.950;-122.338;2023-05-10T04:07:39;1.58;;;0.70;;
70008;SDS011;59542;37.950;-122.338;2023-05-10T04:10:06;3.63;;;0.60;;
70008;SDS011;59542;37.950;-122.338;2023-05-10T04:12:33;2.88;;;0.73;;
70008;SDS011;59542;37.950;-122.338;2023-05-10T04:14:59;3.80;;;0.98;;
70008;SDS011;59542;37.950;-122.338;2023-05-10T04:17:25;3.63;;;0.77;;
70008;SDS011;59542;37.950;-122.338;2023-05-10T04:19:51;2.05;;;0.60;;
70008;SDS011;59542;37.950;-122.338;2023-05-10T04:22:20;0.63;;;0.60;;
70008;SDS011;59542;37.950;-122.338;2023-05-10T04:24:46;2.15;;;0.80;;
70008;SDS011;59542;37.950;-122.338;2023-05-10T04:27:12;1.58;;;0.55;;
70008;SDS011;59542;37.950;-122.338;2023-05-10T04:29:38;1.52;;;0.68;;
70008;SDS011;59542;37.950;-122.338;2023-05-10T04:32:04;3.08;;;0.82;;
70008;SDS011;59542;37.950;-122.338;2023-05-10T04:34:31;3.55;;;0.70;;
70008;SDS011;59542;37.950;-122.338;2023-05-10T04:36:59;4.53;;;0.93;;
70008;SDS011;59542;37.950;-122.338;2023-05-10T04:39:25;2.28;;;0.80;;
70008;SDS011;59542;37.950;-122.338;2023-05-10T04:41:52;1.52;;;0.70;;
70008;SDS011;59542;37.950;-122.338;2023-05-10T04:44:18;1.70;;;0.80;;
70008;SDS011;59542;37.950;-122.338;2023-05-10T04:46:44;1.52;;;0.60;;
70008;SDS011;59542;37.950;-122.338;2023-05-10T04:49:11;3.58;;;0.80;;
70008;SDS011;59542;37.950;-122.338;2023-05-10T04:51:37;4.60;;;1.00;;
70008;SDS011;59542;37.950;-122.338;2023-05-10T04:54:03;1.90;;;0.70;;
70008;SDS011;59542;37.950;-122.338;2023-05-10T04:56:30;2.45;;;1.08;;
70008;SDS011;59542;37.950;-122.338;2023-05-10T04:58:56;1.65;;;0.70;;
70008;SDS011;59542;37.950;-122.338;2023-05-10T05:01:22;3.35;;;0.85;;
70008;SDS011;59542;37.950;-122.338;2023-05-10T05:03:49;1.00;;;0.60;;
70008;SDS011;59542;37.950;-122.338;2023-05-10T05:06:15;2.20;;;0.75;;
70008;SDS011;59542;37.950;-122.338;2023-05-10T05:08:42;0.85;;;0.50;;
70008;SDS011;59542;37.950;-122.338;2023-05-10T05:11:08;2.08;;;0.77;;
70008;SDS011;59542;37.950;-122.338;2023-05-10T05:13:34;4.30;;;0.80;;
70008;SDS011;59542;37.950;-122.338;2023-05-10T05:16:03;3.05;;;1.00;;
70008;SDS011;59542;37.950;-122.338;2023-05-10T05:18:30;2.33;;;0.80;;
70008;SDS011;59542;37.950;-122.338;2023-05-10T05:20:57;3.15;;;0.75;;
70008;SDS011;59542;37.950;-122.338;2023-05-10T05:23:23;3.88;;;0.65;;
70008;SDS011;59542;37.950;-122.338;2023-05-10T05:25:52;2.20;;;0.85;;
70008;SDS011;59542;37.950;-122.338;2023-05-10T05:28:22;2.97;;;0.85;;
70008;SDS011;59542;37.950;-122.338;2023-05-10T05:30:48;2.88;;;0.93;;
70008;SDS011;59542;37.950;-122.338;2023-05-10T05:33:14;1.00;;;0.60;;
70008;SDS011;59542;37.950;-122.338;2023-05-10T05:35:40;2.25;;;0.60;;
70008;SDS011;59542;37.950;-122.338;2023-05-10T05:38:09;1.60;;;0.68;;
70008;SDS011;59542;37.950;-122.338;2023-05-10T05:40:36;1.38;;;0.52;;
70008;SDS011;59542;37.950;-122.338;2023-05-10T05:43:02;2.55;;;0.50;;
70008;SDS011;59542;37.950;-122.338;2023-05-10T05:45:28;1.77;;;0.70;;
70008;SDS011;59542;37.950;-122.338;2023-05-10T05:47:54;2.60;;;0.70;;
70008;SDS011;59542;37.950;-122.338;2023-05-10T05:50:21;2.42;;;0.70;;
70008;SDS011;59542;37.950;-122.338;2023-05-10T05:52:47;3.42;;;0.60;;
70008;SDS011;59542;37.950;-122.338;2023-05-10T05:55:13;2.67;;;0.90;;
70008;SDS011;59542;37.950;-122.338;2023-05-10T05:57:40;3.13;;;0.70;;
70008;SDS011;59542;37.950;-122.338;2023-05-10T06:00:06;1.48;;;0.57;;
70008;SDS011;59542;37.950;-122.338;2023-05-10T06:02:33;4.05;;;0.77;;
70008;SDS011;59542;37.950;-122.338;2023-05-10T06:04:59;3.53;;;0.68;;
70008;SDS011;59542;37.950;-122.338;2023-05-10T06:07:25;2.42;;;0.80;;
70008;SDS011;59542;37.950;-122.338;2023-05-10T06:09:51;2.33;;;0.70;;
70008;SDS011;59542;37.950;-122.338;2023-05-10T06:12:18;1.75;;;0.80;;
70008;SDS011;59542;37.950;-122.338;2023-05-10T06:14:44;4.53;;;1.10;;
70008;SDS011;59542;37.950;-122.338;2023-05-10T06:17:10;2.45;;;0.65;;
70008;SDS011;59542;37.950;-122.338;2023-05-10T06:19:36;5.25;;;0.90;;
70008;SDS011;59542;37.950;-122.338;2023-05-10T06:22:02;3.45;;;0.85;;
70008;SDS011;59542;37.950;-122.338;2023-05-10T06:24:29;3.17;;;0.75;;
70008;SDS011;59542;37.950;-122.338;2023-05-10T06:26:55;3.92;;;0.70;;
70008;SDS011;59542;37.950;-122.338;2023-05-10T06:29:21;0.88;;;0.60;;
70008;SDS011;59542;37.950;-122.338;2023-05-10T06:31:47;2.28;;;0.52;;
70008;SDS011;59542;37.950;-122.338;2023-05-10T06:34:14;0.80;;;0.60;;
70008;SDS011;59542;37.950;-122.338;2023-05-10T06:36:40;3.97;;;0.90;;
70008;SDS011;59542;37.950;-122.338;2023-05-10T06:39:06;3.45;;;1.20;;
70008;SDS011;59542;37.950;-122.338;2023-05-10T06:41:32;2.88;;;1.10;;
70008;SDS011;59542;37.950;-122.338;2023-05-10T06:43:59;5.03;;;1.42;;
70008;SDS011;59542;37.950;-122.338;2023-05-10T06:46:25;5.65;;;1.55;;
70008;SDS011;59542;37.950;-122.338;2023-05-10T06:48:51;5.85;;;1.40;;
70008;SDS011;59542;37.950;-122.338;2023-05-10T06:51:17;3.20;;;1.13;;
70008;SDS011;59542;37.950;-122.338;2023-05-10T06:53:43;5.95;;;1.60;;
70008;SDS011;59542;37.950;-122.338;2023-05-10T06:56:10;3.80;;;1.30;;
70008;SDS011;59542;37.950;-122.338;2023-05-10T06:58:36;4.40;;;1.23;;
70008;SDS011;59542;37.950;-122.338;2023-05-10T07:01:03;2.42;;;1.05;;
70008;SDS011;59542;37.950;-122.338;2023-05-10T07:03:31;4.45;;;1.40;;
70008;SDS011;59542;37.950;-122.338;2023-05-10T07:06:01;4.05;;;1.42;;
70008;SDS011;59542;37.950;-122.338;2023-05-10T07:08:29;7.00;;;1.92;;
70008;SDS011;59542;37.950;-122.338;2023-05-10T07:11:03;5.20;;;1.77;;
70008;SDS011;59542;37.950;-122.338;2023-05-10T07:13:32;4.63;;;1.30;;
70008;SDS011;59542;37.950;-122.338;2023-05-10T07:15:59;4.85;;;1.50;;
70008;SDS011;59542;37.950;-122.338;2023-05-10T07:18:27;6.07;;;1.70;;
70008;SDS011;59542;37.950;-122.338;2023-05-10T07:20:54;6.28;;;1.50;;
70008;SDS011;59542;37.950;-122.338;2023-05-10T07:23:20;3.45;;;1.55;;
70008;SDS011;59542;37.950;-122.338;2023-05-10T07:25:47;4.57;;;1.20;;
70008;SDS011;59542;37.950;-122.338;2023-05-10T07:28:15;2.65;;;1.23;;
70008;SDS011;59542;37.950;-122.338;2023-05-10T07:30:41;7.00;;;1.73;;
70008;SDS011;59542;37.950;-122.338;2023-05-10T07:33:08;7.03;;;1.65;;
70008;SDS011;59542;37.950;-122.338;2023-05-10T07:35:35;6.50;;;1.52;;
70008;SDS011;59542;37.950;-122.338;2023-05-10T07:38:02;4.22;;;1.27;;
70008;SDS011;59542;37.950;-122.338;2023-05-10T07:40:28;4.80;;;1.50;;
70008;SDS011;59542;37.950;-122.338;2023-05-10T07:42:55;4.95;;;1.38;;
70008;SDS011;59542;37.950;-122.338;2023-05-10T07:45:22;6.28;;;1.63;;
70008;SDS011;59542;37.950;-122.338;2023-05-10T07:47:49;6.65;;;1.83;;
70008;SDS011;59542;37.950;-122.338;2023-05-10T07:50:15;5.75;;;1.88;;
70008;SDS011;59542;37.950;-122.338;2023-05-10T07:52:41;7.15;;;1.30;;
70008;SDS011;59542;37.950;-122.338;2023-05-10T07:55:08;5.30;;;1.85;;
70008;SDS011;59542;37.950;-122.338;2023-05-10T07:57:35;4.75;;;1.30;;
70008;SDS011;59542;37.950;-122.338;2023-05-10T08:00:01;3.30;;;1.45;;
70008;SDS011;59542;37.950;-122.338;2023-05-10T08:02:28;4.32;;;1.75;;
70008;SDS011;59542;37.950;-122.338;2023-05-10T08:04:54;5.22;;;1.70;;
70008;SDS011;59542;37.950;-122.338;2023-05-10T08:07:21;4.05;;;1.58;;
70008;SDS011;59542;37.950;-122.338;2023-05-10T08:09:48;4.40;;;1.73;;
70008;SDS011;59542;37.950;-122.338;2023-05-10T08:12:14;6.63;;;2.13;;
70008;SDS011;59542;37.950;-122.338;2023-05-10T08:14:41;5.95;;;1.95;;
70008;SDS011;59542;37.950;-122.338;2023-05-10T08:17:07;4.43;;;1.77;;
70008;SDS011;59542;37.950;-122.338;2023-05-10T08:19:33;7.75;;;1.88;;
70008;SDS011;59542;37.950;-122.338;2023-05-10T08:22:00;5.68;;;1.77;;
70008;SDS011;59542;37.950;-122.338;2023-05-10T08:24:26;6.85;;;2.13;;
70008;SDS011;59542;37.950;-122.338;2023-05-10T08:26:52;5.45;;;1.50;;
70008;SDS011;59542;37.950;-122.338;2023-05-10T08:29:18;5.05;;;1.45;;
70008;SDS011;59542;37.950;-122.338;2023-05-10T08:31:45;8.52;;;2.13;;
70008;SDS011;59542;37.950;-122.338;2023-05-10T08:34:11;7.18;;;1.88;;
70008;SDS011;59542;37.950;-122.338;2023-05-10T08:36:37;9.50;;;2.45;;
70008;SDS011;59542;37.950;-122.338;2023-05-10T08:39:03;4.43;;;1.75;;
70008;SDS011;59542;37.950;-122.338;2023-05-10T08:41:30;8.13;;;2.03;;
70008;SDS011;59542;37.950;-122.338;2023-05-10T08:43:59;3.35;;;1.42;;
70008;SDS011;59542;37.950;-122.338;2023-05-10T08:46:29;8.48;;;1.80;;
70008;SDS011;59542;37.950;-122.338;2023-05-10T08:49:00;4.22;;;1.58;;
70008;SDS011;59542;37.950;-122.338;2023-05-10T08:51:30;2.53;;;1.30;;
70008;SDS011;59542;37.950;-122.338;2023-05-10T08:54:05;4.88;;;1.70;;
70008;SDS011;59542;37.950;-122.338;2023-05-10T08:56:32;3.10;;;1.50;;
70008;SDS011;59542;37.950;-122.338;2023-05-10T08:58:58;7.40;;;1.75;;
70008;SDS011;59542;37.950;-122.338;2023-05-10T09:01:25;5.63;;;1.70;;
70008;SDS011;59542;37.950;-122.338;2023-05-10T09:03:52;7.55;;;1.60;;
70008;SDS011;59542;37.950;-122.338;2023-05-10T09:06:19;3.60;;;1.48;;
70008;SDS011;59542;37.950;-122.338;2023-05-10T09:08:45;5.13;;;2.05;;
70008;SDS011;59542;37.950;-122.338;2023-05-10T09:11:12;4.28;;;1.60;;
70008;SDS011;59542;37.950;-122.338;2023-05-10T09:13:39;7.50;;;1.73;;
70008;SDS011;59542;37.950;-122.338;2023-05-10T09:16:06;5.57;;;1.70;;
70008;SDS011;59542;37.950;-122.338;2023-05-10T09:18:32;6.82;;;1.77;;
70008;SDS011;59542;37.950;-122.338;2023-05-10T09:20:58;8.10;;;1.70;;
70008;SDS011;59542;37.950;-122.338;2023-05-10T09:23:25;4.65;;;1.55;;
70008;SDS011;59542;37.950;-122.338;2023-05-10T09:26:04;8.80;;;2.08;;
70008;SDS011;59542;37.950;-122.338;2023-05-10T09:28:34;11.43;;;1.60;;
70008;SDS011;59542;37.950;-122.338;2023-05-10T09:31:15;7.05;;;1.75;;
70008;SDS011;59542;37.950;-122.338;2023-05-10T09:33:44;8.70;;;1.55;;
70008;SDS011;59542;37.950;-122.338;2023-05-10T09:36:12;8.25;;;2.08;;
70008;SDS011;59542;37.950;-122.338;2023-05-10T09:38:49;5.68;;;1.70;;
70008;SDS011;59542;37.950;-122.338;2023-05-10T09:41:21;3.05;;;1.40;;
70008;SDS011;59542;37.950;-122.338;2023-05-10T09:43:48;5.88;;;1.73;;
70008;SDS011;59542;37.950;-122.338;2023-05-10T09:46:15;5.32;;;1.77;;
70008;SDS011;59542;37.950;-122.338;2023-05-10T09:48:42;4.70;;;1.45;;
70008;SDS011;59542;37.950;-122.338;2023-05-10T09:51:10;5.18;;;1.65;;
70008;SDS011;59542;37.950;-122.338;2023-05-10T09:53:43;4.22;;;1.75;;
70008;SDS011;59542;37.950;-122.338;2023-05-10T09:56:11;5.90;;;1.40;;
70008;SDS011;59542;37.950;-122.338;2023-05-10T09:58:37;5.75;;;2.72;;
70008;SDS011;59542;37.950;-122.338;2023-05-10T10:01:03;7.85;;;1.98;;
70008;SDS011;59542;37.950;-122.338;2023-05-10T10:03:30;7.00;;;2.17;;
70008;SDS011;59542;37.950;-122.338;2023-05-10T10:05:56;6.43;;;1.70;;
70008;SDS011;59542;37.950;-122.338;2023-05-10T10:08:22;7.70;;;2.03;;
70008;SDS011;59542;37.950;-122.338;2023-05-10T10:10:49;5.90;;;1.60;;
70008;SDS011;59542;37.950;-122.338;2023-05-10T10:13:15;5.60;;;1.33;;
70008;SDS011;59542;37.950;-122.338;2023-05-10T10:15:42;8.15;;;2.88;;
70008;SDS011;59542;37.950;-122.338;2023-05-10T10:18:16;6.00;;;1.40;;
70008;SDS011;59542;37.950;-122.338;2023-05-10T10:20:43;4.10;;;1.50;;
70008;SDS011;59542;37.950;-122.338;2023-05-10T10:23:10;3.38;;;1.50;;
70008;SDS011;59542;37.950;-122.338;2023-05-10T10:25:36;4.97;;;1.75;;
70008;SDS011;59542;37.950;-122.338;2023-05-10T10:28:08;5.72;;;2.03;;
70008;SDS011;59542;37.950;-122.338;2023-05-10T10:30:50;3.78;;;1.48;;
70008;SDS011;59542;37.950;-122.338;2023-05-10T10:36:05;6.30;;;2.00;;
70008;SDS011;59542;37.950;-122.338;2023-05-10T10:38:35;3.08;;;1.30;;
70008;SDS011;59542;37.950;-122.338;2023-05-10T10:41:27;5.40;;;1.67;;
70008;SDS011;59542;37.950;-122.338;2023-05-10T10:49:49;7.22;;;2.08;;
70008;SDS011;59542;37.950;-122.338;2023-05-10T10:54:51;8.60;;;2.03;;
70008;SDS011;59542;37.950;-122.338;2023-05-10T11:00:20;7.47;;;2.22;;
70008;SDS011;59542;37.950;-122.338;2023-05-10T11:02:53;6.55;;;2.45;;
70008;SDS011;59542;37.950;-122.338;2023-05-10T11:08:46;5.25;;;2.20;;
70008;SDS011;59542;37.950;-122.338;2023-05-10T11:13:31;7.30;;;2.45;;
70008;SDS011;59542;37.950;-122.338;2023-05-10T11:16:22;5.95;;;2.20;;
70008;SDS011;59542;37.950;-122.338;2023-05-10T11:19:01;6.00;;;1.88;;
70008;SDS011;59542;37.950;-122.338;2023-05-10T11:21:30;8.05;;;2.67;;
70008;SDS011;59542;37.950;-122.338;2023-05-10T11:23:58;9.10;;;2.67;;
70008;SDS011;59542;37.950;-122.338;2023-05-10T11:26:34;6.80;;;2.10;;
70008;SDS011;59542;37.950;-122.338;2023-05-10T11:29:01;7.50;;;2.10;;
70008;SDS011;59542;37.950;-122.338;2023-05-10T11:31:30;7.28;;;2.28;;
70008;SDS011;59542;37.950;-122.338;2023-05-10T11:33:57;8.45;;;2.30;;
70008;SDS011;59542;37.950;-122.338;2023-05-10T11:36:26;7.72;;;1.88;;
70008;SDS011;59542;37.950;-122.338;2023-05-10T11:38:54;4.88;;;1.67;;
70008;SDS011;59542;37.950;-122.338;2023-05-10T11:41:22;7.18;;;2.05;;
70008;SDS011;59542;37.950;-122.338;2023-05-10T11:43:49;4.38;;;1.67;;
70008;SDS011;59542;37.950;-122.338;2023-05-10T11:46:18;5.32;;;1.45;;
70008;SDS011;59542;37.950;-122.338;2023-05-10T11:48:46;7.40;;;2.30;;
70008;SDS011;59542;37.950;-122.338;2023-05-10T11:51:21;7.70;;;1.95;;
70008;SDS011;59542;37.950;-122.338;2023-05-10T11:53:53;13.90;;;2.30;;
70008;SDS011;59542;37.950;-122.338;2023-05-10T11:56:21;12.10;;;2.88;;
70008;SDS011;59542;37.950;-122.338;2023-05-10T11:58:55;9.32;;;2.75;;
70008;SDS011;59542;37.950;-122.338;2023-05-10T12:01:22;7.03;;;2.00;;
70008;SDS011;59542;37.950;-122.338;2023-05-10T12:03:50;6.50;;;1.80;;
70008;SDS011;59542;37.950;-122.338;2023-05-10T12:06:19;5.70;;;1.77;;
70008;SDS011;59542;37.950;-122.338;2023-05-10T12:08:47;6.80;;;2.10;;
70008;SDS011;59542;37.950;-122.338;2023-05-10T12:11:17;3.95;;;2.00;;
70008;SDS011;59542;37.950;-122.338;2023-05-10T12:13:44;6.88;;;1.88;;
70008;SDS011;59542;37.950;-122.338;2023-05-10T12:16:18;4.80;;;2.00;;
70008;SDS011;59542;37.950;-122.338;2023-05-10T12:18:54;5.55;;;1.88;;
70008;SDS011;59542;37.950;-122.338;2023-05-10T12:21:22;5.93;;;2.15;;
70008;SDS011;59542;37.950;-122.338;2023-05-10T12:23:50;6.28;;;1.80;;
70008;SDS011;59542;37.950;-122.338;2023-05-10T12:26:25;8.07;;;1.95;;
70008;SDS011;59542;37.950;-122.338;2023-05-10T12:28:53;4.78;;;1.60;;
70008;SDS011;59542;37.950;-122.338;2023-05-10T12:31:20;5.43;;;2.10;;
70008;SDS011;59542;37.950;-122.338;2023-05-10T12:33:46;6.80;;;2.22;;
70008;SDS011;59542;37.950;-122.338;2023-05-10T12:36:14;7.57;;;1.42;;
70008;SDS011;59542;37.950;-122.338;2023-05-10T12:38:44;4.85;;;1.42;;
70008;SDS011;59542;37.950;-122.338;2023-05-10T12:41:14;7.45;;;1.77;;
70008;SDS011;59542;37.950;-122.338;2023-05-10T12:43:42;5.72;;;1.52;;
70008;SDS011;59542;37.950;-122.338;2023-05-10T12:46:10;4.53;;;1.40;;
70008;SDS011;59542;37.950;-122.338;2023-05-10T12:48:38;6.32;;;1.55;;
70008;SDS011;59542;37.950;-122.338;2023-05-10T12:51:05;5.18;;;1.67;;
70008;SDS011;59542;37.950;-122.338;2023-05-10T12:53:37;8.07;;;2.15;;
70008;SDS011;59542;37.950;-122.338;2023-05-10T12:56:04;5.05;;;1.75;;
70008;SDS011;59542;37.950;-122.338;2023-05-10T12:58:30;8.13;;;1.77;;
70008;SDS011;59542;37.950;-122.338;2023-05-10T13:00:57;5.88;;;1.48;;
70008;SDS011;59542;37.950;-122.338;2023-05-10T13:03:25;3.30;;;1.30;;
70008;SDS011;59542;37.950;-122.338;2023-05-10T13:05:51;9.93;;;2.03;;
70008;SDS011;59542;37.950;-122.338;2023-05-10T13:08:17;5.90;;;1.80;;
70008;SDS011;59542;37.950;-122.338;2023-05-10T13:10:44;5.95;;;1.60;;
70008;SDS011;59542;37.950;-122.338;2023-05-10T13:13:10;5.43;;;2.00;;
70008;SDS011;59542;37.950;-122.338;2023-05-10T13:15:36;9.15;;;1.90;;
70008;SDS011;59542;37.950;-122.338;2023-05-10T13:18:02;6.57;;;1.58;;
70008;SDS011;59542;37.950;-122.338;2023-05-10T13:20:29;6.90;;;1.40;;
70008;SDS011;59542;37.950;-122.338;2023-05-10T13:22:55;3.58;;;1.50;;
70008;SDS011;59542;37.950;-122.338;2023-05-10T13:25:21;5.68;;;1.73;;
70008;SDS011;59542;37.950;-122.338;2023-05-10T13:27:47;4.45;;;1.73;;
70008;SDS011;59542;37.950;-122.338;2023-05-10T13:30:14;10.85;;;1.80;;
70008;SDS011;59542;37.950;-122.338;2023-05-10T13:32:40;5.80;;;1.73;;
70008;SDS011;59542;37.950;-122.338;2023-05-10T13:35:06;3.78;;;1.77;;
70008;SDS011;59542;37.950;-122.338;2023-05-10T13:37:33;4.75;;;1.40;;
70008;SDS011;59542;37.950;-122.338;2023-05-10T13:40:02;4.40;;;1.60;;
70008;SDS011;59542;37.950;-122.338;2023-05-10T13:42:29;4.18;;;1.55;;
70008;SDS011;59542;37.950;-122.338;2023-05-10T13:44:57;2.75;;;1.10;;
70008;SDS011;59542;37.950;-122.338;2023-05-10T13:47:23;6.10;;;1.45;;
70008;SDS011;59542;37.950;-122.338;2023-05-10T13:49:49;4.05;;;1.95;;
70008;SDS011;59542;37.950;-122.338;2023-05-10T13:52:15;5.65;;;1.73;;
70008;SDS011;59542;37.950;-122.338;2023-05-10T13:54:42;6.95;;;2.17;;
70008;SDS011;59542;37.950;-122.338;2023-05-10T13:57:08;3.05;;;1.90;;
70008;SDS011;59542;37.950;-122.338;2023-05-10T13:59:36;3.95;;;1.40;;
70008;SDS011;59542;37.950;-122.338;2023-05-10T14:02:03;4.13;;;1.75;;
70008;SDS011;59542;37.950;-122.338;2023-05-10T14:04:29;6.70;;;1.75;;
70008;SDS011;59542;37.950;-122.338;2023-05-10T14:06:55;4.57;;;1.50;;
70008;SDS011;59542;37.950;-122.338;2023-05-10T14:09:22;4.60;;;1.45;;
70008;SDS011;59542;37.950;-122.338;2023-05-10T14:11:48;3.97;;;1.55;;
70008;SDS011;59542;37.950;-122.338;2023-05-10T14:14:14;2.47;;;1.33;;
70008;SDS011;59542;37.950;-122.338;2023-05-10T14:16:42;4.13;;;1.40;;
70008;SDS011;59542;37.950;-122.338;2023-05-10T14:19:09;4.53;;;1.23;;
70008;SDS011;59542;37.950;-122.338;2023-05-10T14:21:36;6.38;;;1.58;;
70008;SDS011;59542;37.950;-122.338;2023-05-10T14:24:03;4.35;;;1.48;;
70008;SDS011;59542;37.950;-122.338;2023-05-10T14:26:30;3.50;;;1.30;;
70008;SDS011;59542;37.950;-122.338;2023-05-10T14:28:56;4.57;;;1.65;;
70008;SDS011;59542;37.950;-122.338;2023-05-10T14:31:24;5.45;;;1.85;;
70008;SDS011;59542;37.950;-122.338;2023-05-10T14:33:50;4.47;;;1.45;;
70008;SDS011;59542;37.950;-122.338;2023-05-10T14:36:17;5.82;;;1.80;;
70008;SDS011;59542;37.950;-122.338;2023-05-10T14:38:43;4.40;;;1.40;;
70008;SDS011;59542;37.950;-122.338;2023-05-10T14:41:09;7.72;;;1.50;;
70008;SDS011;59542;37.950;-122.338;2023-05-10T14:43:39;5.38;;;1.27;;
70008;SDS011;59542;37.950;-122.338;2023-05-10T14:46:06;4.75;;;1.13;;
70008;SDS011;59542;37.950;-122.338;2023-05-10T14:48:32;9.20;;;1.73;;